Forside
METAR-TAF:

METAR-TAF

Lufthavne :

Islay, Skotland

Breddekreds: 55-40-55N, længdekreds: 006-15-24W, højde: 16 m

Aktuelle vejr

Denne rapport blev lavet for 45 minutter siden, kl. 00:50 UTC
Vind 9 kt fra sydøst
Temperatur 9°C
Fugtighed 93%
Tryk 1030 hPa
Sigt 10 km eller mere

METAR: EGPI 250050Z AUTO 13009KT 9999 NCD 09/08 Q1030

Tid: 02:35 (01:35 UTC)

Vejrudsigter

Denne rapport blev lavet for 5 timer og 33 minutter siden, kl. 20:02 UTC
Foreløbig gælder fra 24 på 21 UTC til 25 på 06 UTC
Vind 10 kt fra vest
Sigt 10 km eller mere
Spredte skyer i en højde af 4000 ft
ændring
fra 24 på 21 UTC til 24 på 24 UTC
Vind 9 kt fra sydsydøst

TAF: EGPI 242002Z 2421/2506 26010KT 9999 SCT040 BECMG 2421/2424 16009KT

Vejrobservationer og prognoser fra mere end 4000 lufthavne (METAR og TAF).

De gule og røde prikker repræsenterer de meteorologiske stationer.

Flyt musen over at se navnet på stationen.

Så klik over at se vejr observationer og prognoser.

At skifte det kort: Klik på de grønne knapper med et sort kors for at zoome ind; på den grønne knap med en bindestreg for at zoome ud; eller på de grønne pile for tilstødende kort.


METAR-TAF: